createdAt,value
2018-09-21T00:05:24.072Z,4.30
2018-09-21T00:07:53.440Z,4.43
2018-09-21T00:10:22.866Z,4.77
2018-09-21T00:12:53.080Z,4.87
2018-09-21T00:15:22.439Z,5.97
2018-09-21T00:17:52.554Z,5.00
2018-09-21T00:20:21.834Z,5.50
2018-09-21T00:23:12.234Z,5.33
2018-09-21T00:25:56.945Z,4.30
2018-09-21T00:28:27.547Z,4.50
2018-09-21T00:31:11.868Z,4.93
2018-09-21T00:33:41.134Z,6.63
2018-09-21T00:39:11.850Z,7.37
2018-09-21T00:41:41.091Z,5.53
2018-09-21T00:44:10.273Z,4.00
2018-09-21T00:47:02.832Z,4.60
2018-09-21T00:49:32.212Z,5.87
2018-09-21T01:05:56.004Z,5.40
2018-09-21T01:08:25.551Z,5.60
2018-09-21T01:10:55.533Z,4.20
2018-09-21T01:13:25.545Z,5.43
2018-09-21T01:15:55.225Z,5.40
2018-09-21T01:18:25.205Z,4.60
2018-09-21T01:20:55.692Z,5.97
2018-09-21T01:23:25.530Z,6.27
2018-09-21T01:25:55.306Z,5.57
2018-09-21T01:28:24.573Z,5.70
2018-09-21T01:30:54.471Z,7.03
2018-09-21T01:33:26.908Z,5.60
2018-09-21T01:35:58.423Z,4.77
2018-09-21T01:38:42.643Z,8.97
2018-09-21T01:41:19.704Z,5.23
2018-09-21T01:43:51.397Z,5.13
2018-09-21T01:46:26.263Z,5.30
2018-09-21T01:49:09.405Z,5.47
2018-09-21T01:51:40.436Z,6.30
2018-09-21T01:54:13.545Z,5.20
2018-09-21T01:56:43.768Z,6.17
2018-09-21T01:59:14.003Z,6.57
2018-09-21T02:01:45.146Z,6.60
2018-09-21T02:04:18.152Z,6.20
2018-09-21T02:09:47.099Z,5.30
2018-09-21T02:12:16.814Z,5.67
2018-09-21T02:14:47.123Z,5.47
2018-09-21T02:17:16.948Z,5.80
2018-09-21T02:19:47.109Z,5.97
2018-09-21T02:22:16.266Z,5.43
2018-09-21T02:24:46.425Z,9.27
2018-09-21T02:27:22.960Z,6.47
2018-09-21T02:29:55.662Z,6.13
2018-09-21T02:32:25.668Z,6.87
2018-09-21T02:34:57.038Z,7.03
2018-09-21T02:37:26.179Z,7.83
2018-09-21T02:39:59.458Z,6.57
2018-09-21T02:42:28.681Z,6.77
2018-09-21T02:45:07.650Z,7.77
2018-09-21T02:47:36.983Z,7.97
2018-09-21T02:50:06.680Z,6.97
2018-09-21T02:52:35.948Z,8.83
2018-09-21T02:55:06.141Z,6.20
2018-09-21T02:57:36.146Z,7.90
2018-09-21T03:00:06.453Z,10.83
2018-09-21T03:02:35.721Z,10.90
2018-09-21T03:05:04.803Z,9.97
2018-09-21T03:07:33.942Z,9.67
2018-09-21T03:10:03.329Z,8.70
2018-09-21T03:12:32.500Z,7.13
2018-09-21T03:15:01.547Z,8.57
2018-09-21T03:17:30.664Z,11.40
2018-09-21T03:19:59.835Z,9.40
2018-09-21T03:22:29.044Z,10.63
2018-09-21T03:24:58.400Z,9.33
2018-09-21T03:27:27.934Z,11.00
2018-09-21T03:29:56.960Z,11.40
2018-09-21T03:32:26.267Z,9.20
2018-09-21T03:34:55.821Z,11.07
2018-09-21T03:37:24.945Z,11.17
2018-09-21T03:39:54.119Z,10.63
2018-09-21T03:42:23.396Z,9.97
2018-09-21T03:44:52.641Z,8.40
2018-09-21T03:47:21.880Z,10.93
2018-09-21T03:49:51.223Z,7.43
2018-09-21T03:52:20.728Z,9.73
2018-09-21T03:54:50.064Z,10.50
2018-09-21T03:57:19.307Z,10.17
2018-09-21T03:59:48.472Z,11.40
2018-09-21T04:02:17.629Z,13.67
2018-09-21T04:04:46.938Z,9.93
2018-09-21T04:07:16.177Z,11.90
2018-09-21T04:09:45.318Z,11.90
2018-09-21T04:12:14.610Z,13.23
2018-09-21T04:14:43.980Z,14.77
2018-09-21T04:17:13.178Z,17.43
2018-09-21T04:19:42.526Z,10.60
2018-09-21T04:22:11.786Z,9.07
2018-09-21T04:24:41.032Z,14.87
2018-09-21T04:27:10.273Z,10.60
2018-09-21T04:29:39.576Z,10.80
2018-09-21T04:32:08.957Z,12.47
2018-09-21T04:34:38.353Z,11.30
2018-09-21T04:37:07.658Z,13.93
2018-09-21T04:39:37.136Z,13.47
2018-09-21T04:42:06.599Z,13.47
2018-09-21T04:44:35.898Z,14.37
2018-09-21T04:47:05.170Z,13.07
2018-09-21T04:49:34.593Z,12.97
2018-09-21T04:52:03.971Z,14.47
2018-09-21T04:54:33.439Z,10.57
2018-09-21T04:57:09.392Z,16.87
2018-09-21T04:59:38.656Z,11.80
2018-09-21T05:02:08.034Z,12.67
2018-09-21T05:04:38.047Z,11.43
2018-09-21T05:07:07.560Z,12.07
2018-09-21T05:09:36.801Z,12.57
2018-09-21T05:12:06.251Z,17.17
2018-09-21T05:14:36.664Z,10.10
2018-09-21T05:17:06.015Z,11.00
2018-09-21T05:19:35.494Z,12.23
2018-09-21T05:22:04.821Z,14.60
2018-09-21T05:24:34.059Z,10.37
2018-09-21T05:27:03.315Z,11.87
2018-09-21T05:29:32.854Z,12.10
2018-09-21T05:32:02.110Z,11.73
2018-09-21T05:34:31.405Z,12.43
2018-09-21T05:37:01.708Z,10.70
2018-09-21T05:39:31.038Z,15.27
2018-09-21T05:42:00.444Z,12.50
2018-09-21T05:44:29.719Z,12.73
2018-09-21T05:46:59.029Z,12.63
2018-09-21T05:49:28.375Z,13.37
2018-09-21T05:51:58.494Z,14.37
2018-09-21T05:54:27.837Z,10.23
2018-09-21T05:56:57.157Z,10.83
2018-09-21T05:59:26.525Z,11.10
2018-09-21T06:01:55.861Z,10.77
2018-09-21T06:04:25.299Z,18.83
2018-09-21T06:06:54.749Z,9.33
2018-09-21T06:09:25.085Z,10.47
2018-09-21T06:11:54.323Z,9.73
2018-09-21T06:14:23.652Z,9.80
2018-09-21T06:16:52.970Z,12.47
2018-09-21T06:19:22.645Z,10.67
2018-09-21T06:21:52.077Z,11.87
2018-09-21T06:24:21.532Z,11.70
2018-09-21T06:26:50.916Z,8.73
2018-09-21T06:29:20.199Z,8.00
2018-09-21T06:31:50.233Z,8.70
2018-09-21T06:34:19.610Z,8.78
2018-09-21T06:36:49.079Z,11.48
2018-09-21T06:39:18.681Z,6.67
2018-09-21T06:41:48.169Z,7.17
2018-09-21T06:44:17.529Z,8.05
2018-09-21T06:46:46.686Z,7.42
2018-09-21T06:49:15.880Z,6.65
2018-09-21T06:51:45.100Z,5.65
2018-09-21T06:54:14.380Z,6.10
2018-09-21T06:56:43.596Z,7.72
2018-09-21T06:59:12.868Z,6.63
2018-09-21T07:01:42.122Z,5.58
2018-09-21T07:04:11.254Z,6.57
2018-09-21T07:06:40.321Z,6.20
2018-09-21T07:09:12.502Z,6.63
2018-09-21T07:11:42.192Z,8.73
2018-09-21T07:14:12.131Z,8.77
2018-09-21T07:16:41.567Z,9.33
2018-09-21T07:19:10.596Z,7.37
2018-09-21T07:21:39.770Z,6.87
2018-09-21T07:24:08.995Z,7.07
2018-09-21T07:26:38.576Z,8.57
2018-09-21T07:29:07.872Z,6.03
2018-09-21T07:31:37.346Z,11.10
2018-09-21T07:34:06.679Z,7.83
2018-09-21T07:36:35.854Z,6.43
2018-09-21T07:39:06.617Z,6.20
2018-09-21T07:41:36.134Z,6.97
2018-09-21T07:44:05.521Z,11.70
2018-09-21T07:46:34.797Z,7.47
2018-09-21T07:49:04.304Z,8.80
2018-09-21T07:51:33.676Z,7.10
2018-09-21T07:54:02.977Z,5.50
2018-09-21T07:56:32.301Z,11.13
2018-09-21T07:59:01.637Z,6.77
2018-09-21T08:01:30.912Z,13.20
2018-09-21T08:04:00.136Z,11.10
2018-09-21T08:06:29.522Z,13.07
2018-09-21T08:08:58.878Z,12.93
2018-09-21T08:11:28.152Z,12.27
2018-09-21T08:13:57.323Z,8.07
2018-09-21T08:16:26.490Z,8.03
2018-09-21T08:18:55.724Z,8.60
2018-09-21T08:21:24.989Z,6.23
2018-09-21T08:23:54.282Z,10.73
2018-09-21T08:26:23.526Z,11.90
2018-09-21T08:28:52.775Z,10.70
2018-09-21T08:31:22.122Z,6.50
2018-09-21T08:33:52.082Z,7.53
2018-09-21T08:36:21.889Z,5.90
2018-09-21T08:38:51.091Z,5.87
2018-09-21T08:41:20.444Z,5.63
2018-09-21T08:43:49.776Z,8.00
2018-09-21T08:46:19.040Z,7.93
2018-09-21T08:48:48.528Z,6.90
2018-09-21T08:51:17.889Z,7.47
2018-09-21T08:53:47.235Z,5.90
2018-09-21T08:56:16.544Z,6.93
2018-09-21T08:58:45.885Z,7.13
2018-09-21T09:01:15.231Z,7.03
2018-09-21T09:03:44.548Z,4.80
2018-09-21T09:06:13.741Z,5.60
2018-09-21T09:08:42.988Z,8.30
2018-09-21T09:11:12.224Z,5.50
2018-09-21T09:13:41.430Z,6.00
2018-09-21T09:16:10.689Z,5.10
2018-09-21T09:18:39.734Z,5.23
2018-09-21T09:21:09.712Z,5.57
2018-09-21T09:23:39.945Z,7.13
2018-09-21T09:26:09.179Z,5.70
2018-09-21T09:28:38.413Z,4.87
2018-09-21T09:31:41.975Z,6.50
2018-09-21T09:34:12.178Z,6.73
2018-09-21T09:36:49.188Z,5.47
2018-09-21T09:39:19.418Z,5.90
2018-09-21T09:41:48.697Z,9.70
2018-09-21T09:44:18.103Z,4.47
2018-09-21T09:46:47.775Z,7.13
2018-09-21T09:49:17.432Z,10.30
2018-09-21T09:51:46.724Z,5.37
2018-09-21T09:54:15.964Z,7.17
2018-09-21T09:56:45.332Z,8.37
2018-09-21T09:59:14.675Z,8.27
2018-09-21T10:01:44.732Z,6.43
2018-09-21T10:04:14.208Z,6.47
2018-09-21T10:06:43.787Z,10.40
2018-09-21T10:09:12.923Z,7.33
2018-09-21T10:11:42.164Z,6.43
2018-09-21T10:14:12.033Z,6.90
2018-09-21T10:16:43.089Z,7.83
2018-09-21T10:19:12.107Z,4.13
2018-09-21T10:21:42.373Z,8.23
2018-09-21T10:24:12.368Z,6.00
2018-09-21T10:33:01.748Z,6.83
2018-09-21T10:35:30.812Z,4.03
2018-09-21T10:37:59.902Z,5.90
2018-09-21T10:40:28.981Z,5.73
2018-09-21T10:42:58.080Z,7.90
2018-09-21T10:45:27.080Z,4.50
2018-09-21T10:47:56.400Z,7.93
2018-09-21T10:50:25.757Z,5.93
2018-09-21T10:52:54.913Z,5.00
2018-09-21T10:55:23.928Z,5.27
2018-09-21T10:57:53.094Z,4.33
2018-09-21T11:00:22.246Z,5.77
2018-09-21T11:02:51.342Z,4.10
2018-09-21T11:05:20.376Z,6.47
2018-09-21T11:07:49.402Z,5.63
2018-09-21T11:10:18.451Z,4.23
2018-09-21T11:12:47.892Z,6.00
2018-09-21T11:15:17.117Z,5.87
2018-09-21T11:17:46.296Z,5.43
2018-09-21T11:20:15.397Z,4.70
2018-09-21T11:22:44.520Z,3.97
2018-09-21T11:25:13.759Z,3.37
2018-09-21T11:27:42.849Z,4.40
2018-09-21T11:30:12.068Z,3.40
2018-09-21T11:32:41.254Z,4.33
2018-09-21T11:35:10.391Z,3.40
2018-09-21T11:37:39.385Z,4.27
2018-09-21T11:40:08.461Z,2.40
2018-09-21T11:42:37.523Z,4.77
2018-09-21T11:45:07.320Z,2.40
2018-09-21T11:47:36.763Z,2.27
2018-09-21T11:50:05.991Z,6.43
2018-09-21T11:52:35.111Z,7.80
2018-09-21T11:55:04.429Z,2.63
2018-09-21T11:57:33.676Z,2.70
2018-09-21T12:00:03.107Z,2.57
2018-09-21T12:02:32.119Z,2.20
2018-09-21T12:05:01.143Z,1.97
2018-09-21T12:07:30.099Z,2.17
2018-09-21T12:09:59.061Z,0.93
2018-09-21T12:12:28.173Z,1.20
2018-09-21T12:14:57.145Z,1.90
2018-09-21T12:17:26.180Z,1.43
2018-09-21T12:19:55.284Z,1.37
2018-09-21T12:22:24.429Z,1.37
2018-09-21T12:24:53.625Z,3.00
2018-09-21T12:27:22.657Z,4.67
2018-09-21T12:29:52.233Z,3.50
2018-09-21T12:32:21.370Z,2.17
2018-09-21T12:34:50.542Z,2.33
2018-09-21T12:37:19.734Z,2.83
2018-09-21T12:39:48.931Z,3.40
2018-09-21T12:42:17.943Z,3.63
2018-09-21T12:44:47.224Z,3.57
2018-09-21T12:47:16.239Z,5.17
2018-09-21T12:49:45.495Z,3.97
2018-09-21T12:52:14.754Z,6.67
2018-09-21T12:54:43.780Z,5.70
2018-09-21T12:57:12.889Z,4.13
2018-09-21T12:59:42.048Z,4.03
2018-09-21T13:02:11.170Z,5.10
2018-09-21T13:04:40.392Z,2.50
2018-09-21T13:07:09.575Z,4.27
2018-09-21T13:09:38.808Z,5.53
2018-09-21T13:12:08.003Z,3.17
2018-09-21T13:14:37.043Z,3.57
2018-09-21T13:17:06.039Z,5.73
2018-09-21T13:19:35.134Z,8.23
2018-09-21T13:22:04.406Z,4.63
2018-09-21T13:24:33.697Z,5.47
2018-09-21T13:27:02.873Z,6.10
2018-09-21T13:29:32.122Z,9.57
2018-09-21T13:32:01.313Z,8.73
2018-09-21T13:34:30.374Z,6.73
2018-09-21T13:36:59.583Z,7.70
2018-09-21T13:39:28.854Z,5.50
2018-09-21T13:41:57.997Z,6.33
2018-09-21T13:44:27.193Z,4.73
2018-09-21T13:46:56.456Z,6.83
2018-09-21T13:49:25.562Z,9.70
2018-09-21T13:51:54.668Z,6.73
2018-09-21T13:54:24.004Z,6.97
2018-09-21T13:56:53.027Z,9.40
2018-09-21T13:59:22.070Z,7.50
2018-09-21T14:01:51.137Z,7.30
2018-09-21T14:04:20.103Z,8.57
2018-09-21T14:06:49.753Z,6.13
2018-09-21T14:09:18.936Z,7.20
2018-09-21T14:11:48.349Z,8.50
2018-09-21T14:14:17.689Z,8.20
2018-09-21T14:16:46.861Z,7.47
2018-09-21T14:19:16.075Z,8.60
2018-09-21T14:21:45.340Z,5.03
2018-09-21T14:24:14.690Z,5.73
2018-09-21T14:26:43.748Z,6.63
2018-09-21T14:29:12.848Z,6.03
2018-09-21T14:31:41.991Z,9.60
2018-09-21T14:34:11.427Z,5.17
2018-09-21T14:36:40.742Z,5.50
2018-09-21T14:39:11.187Z,7.77
2018-09-21T14:41:40.529Z,7.67
2018-09-21T14:44:09.863Z,6.00
2018-09-21T14:46:39.139Z,5.20
2018-09-21T14:49:08.419Z,5.37
2018-09-21T14:51:37.846Z,6.17
2018-09-21T14:54:07.605Z,7.17
2018-09-21T14:56:36.828Z,8.23
2018-09-21T14:59:07.032Z,4.23
2018-09-21T15:01:36.199Z,7.43
2018-09-21T15:04:05.408Z,5.13
2018-09-21T15:06:34.606Z,5.77
2018-09-21T15:09:04.617Z,4.87
2018-09-21T15:11:33.998Z,6.20
2018-09-21T15:14:03.220Z,5.90
2018-09-21T15:16:32.374Z,7.40
2018-09-21T15:19:01.698Z,5.80
2018-09-21T15:21:30.843Z,6.77
2018-09-21T15:24:00.176Z,7.47
2018-09-21T15:26:29.501Z,4.93
2018-09-21T15:28:58.918Z,5.73
2018-09-21T15:31:28.050Z,5.53
2018-09-21T15:33:57.269Z,4.83
2018-09-21T15:36:26.499Z,7.13
2018-09-21T15:38:55.603Z,4.70
2018-09-21T15:41:24.905Z,4.93
2018-09-21T15:43:54.175Z,7.77
2018-09-21T15:46:23.308Z,5.83
2018-09-21T15:48:52.544Z,6.80
2018-09-21T15:51:21.714Z,7.97
2018-09-21T15:53:50.993Z,5.17
2018-09-21T15:56:20.163Z,3.73
2018-09-21T15:58:49.233Z,4.87
2018-09-21T16:01:18.470Z,3.63
2018-09-21T16:03:47.576Z,4.23
2018-09-21T16:06:22.759Z,3.37
2018-09-21T16:08:52.963Z,5.77
2018-09-21T16:11:22.108Z,4.63
2018-09-21T16:13:52.560Z,3.17
2018-09-21T16:16:21.685Z,3.10
2018-09-21T16:18:51.208Z,3.67
2018-09-21T16:21:20.466Z,3.80
2018-09-21T16:23:49.695Z,1.53
2018-09-21T16:26:19.144Z,3.97
2018-09-21T16:28:48.303Z,5.13
2018-09-21T16:31:17.604Z,3.77
2018-09-21T16:33:46.791Z,5.37
2018-09-21T16:36:15.919Z,3.17
2018-09-21T16:38:45.126Z,3.87
2018-09-21T16:41:14.464Z,3.50
2018-09-21T16:43:43.677Z,2.77
2018-09-21T16:46:14.711Z,2.93
2018-09-21T16:48:44.780Z,3.80
2018-09-21T16:51:16.360Z,4.33
2018-09-21T16:53:45.605Z,4.10
2018-09-21T16:56:16.845Z,3.10
2018-09-21T16:58:46.511Z,3.83
2018-09-21T17:01:16.556Z,3.67
2018-09-21T17:03:45.892Z,3.47
2018-09-21T17:06:15.552Z,4.23
